Time;durP1;ratioP1;P1;durP2;ratioP2;P2;SDS_P1;SDS_P2;PMS_P1;PMS_P2;Temp;Humidity;BMP_temperature;BMP_pressure;BME280_temperature;BME280_humidity;BME280_pressure;Samples;Min_cycle;Max_cycle;Signal;HPM_P1;HPM_P2
2024/02/06 00:01:24;;;;;;;13.60;7.90;;;;;;;7.89;100.00;101232.16;5069434;28;20122;-57
2024/02/06 00:03:52;;;;;;;13.02;7.78;;;;;;;7.92;100.00;101216.31;5073303;28;20052;-57
2024/02/06 00:06:20;;;;;;;12.63;7.90;;;;;;;7.98;100.00;101220.41;5072169;28;20104;-56
2024/02/06 00:08:50;;;;;;;13.48;8.07;;;;;;;7.99;100.00;101211.63;5070276;28;20564;-57
2024/02/06 00:11:19;;;;;;;14.75;9.20;;;;;;;7.97;100.00;101205.59;5069977;28;20044;-56
2024/02/06 00:13:47;;;;;;;13.52;8.02;;;;;;;7.98;100.00;101207.31;5070132;28;20072;-56
2024/02/06 00:16:16;;;;;;;12.80;8.18;;;;;;;7.97;100.00;101202.16;5067311;28;20047;-57
2024/02/06 00:18:44;;;;;;;14.52;8.32;;;;;;;7.99;100.00;101195.91;5070383;28;20063;-57
2024/02/06 00:21:12;;;;;;;15.32;8.43;;;;;;;7.99;100.00;101198.53;5070963;28;20492;-57
2024/02/06 00:23:40;;;;;;;14.68;8.60;;;;;;;7.97;100.00;101197.75;5073481;28;20036;-55
2024/02/06 00:26:10;;;;;;;12.85;7.45;;;;;;;7.98;100.00;101193.38;5071162;28;20048;-57
2024/02/06 00:28:38;;;;;;;16.00;8.65;;;;;;;7.98;100.00;101194.22;5069661;28;20055;-55
2024/02/06 00:31:06;;;;;;;15.75;7.88;;;;;;;8.02;100.00;101189.69;5067348;28;20059;-56
2024/02/06 00:33:34;;;;;;;15.80;8.85;;;;;;;8.06;100.00;101181.59;5071763;28;20093;-57
2024/02/06 00:36:06;;;;;;;14.00;8.43;;;;;;;8.01;100.00;101177.50;5069811;28;20511;-58
2024/02/06 00:38:35;;;;;;;14.45;8.70;;;;;;;8.00;100.00;101181.88;5069487;28;20102;-57
2024/02/06 00:41:03;;;;;;;16.30;8.80;;;;;;;8.00;100.00;101173.19;5072046;28;20048;-47
2024/02/06 00:43:32;;;;;;;17.00;8.23;;;;;;;8.01;100.00;101169.66;5069959;28;20049;-56
2024/02/06 00:46:01;;;;;;;14.20;8.93;;;;;;;8.03;100.00;101175.66;5068944;28;20499;-46
2024/02/06 00:48:29;;;;;;;15.05;9.10;;;;;;;8.03;100.00;101170.41;5072320;28;20114;-52
2024/02/06 00:50:58;;;;;;;14.38;9.02;;;;;;;8.00;100.00;101171.41;5071054;28;20072;-47
2024/02/06 00:53:26;;;;;;;18.67;9.88;;;;;;;8.00;100.00;101166.16;5072535;28;20048;-48
2024/02/06 00:55:54;;;;;;;16.52;9.63;;;;;;;8.02;100.00;101171.34;5072427;28;20423;-50
2024/02/06 00:58:22;;;;;;;17.67;9.38;;;;;;;8.06;100.00;101175.53;5072848;28;20048;-50
2024/02/06 01:00:55;;;;;;;18.35;9.35;;;;;;;8.01;100.00;101174.88;5071527;28;20036;-46
2024/02/06 01:03:23;;;;;;;16.40;9.48;;;;;;;8.05;100.00;101153.69;5070523;28;20052;-49
2024/02/06 01:05:51;;;;;;;17.75;10.25;;;;;;;8.06;100.00;101157.19;5069501;28;20462;-45
2024/02/06 01:08:20;;;;;;;19.05;9.82;;;;;;;8.03;100.00;101152.06;5070895;28;20048;-47
2024/02/06 01:10:48;;;;;;;19.77;9.43;;;;;;;8.07;100.00;101156.22;5072600;28;20040;-47
2024/02/06 01:13:17;;;;;;;13.85;9.05;;;;;;;8.04;100.00;101144.13;5072694;28;20063;-48
2024/02/06 01:15:45;;;;;;;14.23;8.82;;;;;;;8.06;100.00;101144.91;5072168;28;20048;-46
2024/02/06 01:18:15;;;;;;;14.25;8.82;;;;;;;8.07;100.00;101136.13;5072345;28;20041;-47
2024/02/06 01:20:43;;;;;;;14.18;8.82;;;;;;;8.09;100.00;101141.31;5069533;28;20082;-48
2024/02/06 01:23:14;;;;;;;17.08;9.57;;;;;;;8.08;100.00;101129.13;5069392;28;20415;-47
2024/02/06 01:25:43;;;;;;;13.18;8.15;;;;;;;8.11;100.00;101132.44;5072276;28;20048;-49
2024/02/06 01:28:12;;;;;;;14.20;8.93;;;;;;;8.11;100.00;101128.97;5070940;28;20052;-48
2024/02/06 01:30:40;;;;;;;16.17;8.90;;;;;;;8.08;100.00;101132.56;5067729;28;20060;-48
2024/02/06 01:33:08;;;;;;;15.38;8.98;;;;;;;8.11;100.00;101129.81;5071746;28;20107;-46
2024/02/06 01:35:38;;;;;;;13.50;8.10;;;;;;;8.13;100.00;101129.75;5072638;28;20044;-45
2024/02/06 01:38:06;;;;;;;16.83;8.80;;;;;;;8.16;100.00;101133.97;5072099;28;20045;-46
2024/02/06 01:40:41;;;;;;;17.95;8.77;;;;;;;8.13;100.00;101129.75;5072136;28;20098;-46
2024/02/06 01:43:09;;;;;;;15.10;8.38;;;;;;;8.15;100.00;101117.41;5072059;28;20383;-47
2024/02/06 01:45:38;;;;;;;13.80;7.97;;;;;;;8.16;100.00;101121.72;5070930;28;20048;-49
2024/02/06 01:48:07;;;;;;;13.82;8.07;;;;;;;8.18;100.00;101126.88;5072168;28;20059;-48
2024/02/06 01:50:37;;;;;;;13.27;7.88;;;;;;;8.19;100.00;101118.94;5072159;28;20512;-46
2024/02/06 01:53:07;;;;;;;15.88;8.32;;;;;;;8.20;100.00;101109.31;5072144;28;20040;-46
2024/02/06 01:55:35;;;;;;;15.57;7.55;;;;;;;8.22;100.00;101112.69;5071949;28;20052;-47
2024/02/06 01:58:05;;;;;;;14.15;7.82;;;;;;;8.20;100.00;101106.69;5071912;28;20437;-48
2024/02/06 02:00:34;;;;;;;13.52;7.72;;;;;;;8.19;100.00;101113.69;5071879;28;20036;-48
2024/02/06 02:03:04;;;;;;;14.65;7.28;;;;;;;8.20;100.00;101104.91;5073415;28;20048;-49
2024/02/06 02:05:35;;;;;;;17.00;7.50;;;;;;;8.20;100.00;101099.69;5075736;28;20048;-49
2024/02/06 02:08:04;;;;;;;15.95;7.65;;;;;;;8.21;100.00;101104.00;5073608;28;20088;-45
2024/02/06 02:10:34;;;;;;;14.15;8.02;;;;;;;8.21;100.00;101104.00;5072694;28;20051;-47
2024/02/06 02:13:05;;;;;;;15.38;7.60;;;;;;;8.21;100.00;101096.13;5075601;28;20051;-47
2024/02/06 02:15:33;;;;;;;14.43;8.05;;;;;;;8.24;100.00;101095.13;5075535;28;20047;-47
2024/02/06 02:18:02;;;;;;;15.13;6.97;;;;;;;8.27;100.00;101094.97;5075484;28;20044;-47
2024/02/06 02:20:32;;;;;;;15.75;7.93;;;;;;;8.25;100.00;101089.81;5075379;28;20041;-47
2024/02/06 02:23:02;;;;;;;16.00;7.03;;;;;;;8.27;100.00;101082.72;5072831;28;20036;-50
2024/02/06 02:25:42;;;;;;;15.88;6.60;;;;;;;8.28;100.00;101083.56;5072494;28;20048;-52
2024/02/06 02:28:11;;;;;;;13.00;7.15;;;;;;;8.31;100.00;101072.09;5074985;28;20480;-46
2024/02/06 02:30:40;;;;;;;15.48;6.30;;;;;;;8.31;100.00;101079.94;5074816;28;20052;-48
2024/02/06 02:33:09;;;;;;;12.95;5.78;;;;;;;8.33;100.00;101076.34;5074666;28;20040;-47
2024/02/06 02:35:37;;;;;;;14.50;5.63;;;;;;;8.33;100.00;101067.59;5075045;28;20078;-50
2024/02/06 02:38:07;;;;;;;12.93;5.80;;;;;;;8.34;100.00;101059.66;5075185;28;20048;-47
2024/02/06 02:40:35;;;;;;;11.65;5.88;;;;;;;8.34;100.00;101058.81;5074989;28;20052;-48
2024/02/06 02:43:04;;;;;;;13.95;5.50;;;;;;;8.35;100.00;101057.91;5075495;28;20484;-49
2024/02/06 02:45:32;;;;;;;16.30;5.50;;;;;;;8.33;100.00;101057.97;5074870;28;20048;-51
2024/02/06 02:48:00;;;;;;;10.95;5.07;;;;;;;8.37;100.00;101064.75;5074848;28;20095;-48
2024/02/06 02:50:28;;;;;;;12.77;5.22;;;;;;;8.34;100.00;101059.66;5074994;28;20037;-48
2024/02/06 02:52:57;;;;;;;11.55;6.25;;;;;;;8.36;100.00;101049.94;5074879;28;20032;-52
2024/02/06 02:55:26;;;;;;;13.90;4.95;;;;;;;8.37;100.00;101043.78;5074950;28;20054;-48
2024/02/06 02:57:54;;;;;;;14.32;5.50;;;;;;;8.39;100.00;101046.31;5074883;28;20128;-47
2024/02/06 03:00:24;;;;;;;17.60;5.78;;;;;;;8.39;100.00;101048.94;5074772;28;20080;-47
2024/02/06 03:02:52;;;;;;;13.90;4.88;;;;;;;8.43;100.00;101050.47;5074954;28;20051;-49
2024/02/06 03:05:20;;;;;;;11.82;4.75;;;;;;;8.41;100.00;101047.06;5074530;28;20373;-46
2024/02/06 03:07:48;;;;;;;14.27;5.53;;;;;;;8.39;100.00;101038.47;5073705;28;20591;-49
2024/02/06 03:10:16;;;;;;;16.60;5.10;;;;;;;8.41;100.00;101026.09;5072062;28;20055;-49
2024/02/06 03:12:46;;;;;;;15.07;5.18;;;;;;;8.45;100.00;101030.28;5071358;28;20044;-50
2024/02/06 03:15:14;;;;;;;13.95;5.35;;;;;;;8.46;100.00;101016.25;5069786;28;20517;-47
2024/02/06 03:17:42;;;;;;;14.90;4.80;;;;;;;8.48;100.00;101027.53;5070956;28;20384;-49
2024/02/06 03:20:11;;;;;;;11.90;4.90;;;;;;;8.50;100.00;101011.72;5071269;28;20059;-49
2024/02/06 03:22:39;;;;;;;15.73;5.03;;;;;;;8.49;100.00;101016.09;5072246;28;20051;-49
2024/02/06 03:25:09;;;;;;;17.33;5.30;;;;;;;8.51;100.00;101018.63;5074480;28;20515;-49
2024/02/06 03:27:41;;;;;;;13.85;5.13;;;;;;;8.52;100.00;101021.19;5074317;28;20546;-48
2024/02/06 03:30:12;;;;;;;13.18;5.22;;;;;;;8.52;100.00;101018.56;5069058;28;20111;-47
2024/02/06 03:32:40;;;;;;;18.23;5.35;;;;;;;8.54;100.00;101005.38;5070868;28;20036;-49
2024/02/06 03:35:10;;;;;;;15.05;5.25;;;;;;;8.56;100.00;101007.00;5073838;28;20500;-46
2024/02/06 03:37:38;;;;;;;14.43;5.30;;;;;;;8.59;100.00;101009.44;5072328;28;20086;-47
2024/02/06 03:40:10;;;;;;;11.73;5.65;;;;;;;8.57;100.00;100998.19;5073652;28;20079;-48
2024/02/06 03:42:39;;;;;;;16.23;5.95;;;;;;;8.58;100.00;100999.03;5073807;28;20052;-46
2024/02/06 03:45:07;;;;;;;18.38;6.60;;;;;;;8.55;100.00;101001.81;5072487;28;20403;-50
2024/02/06 03:47:36;;;;;;;16.15;6.40;;;;;;;8.52;100.00;100996.75;5073585;28;20048;-50
2024/02/06 03:50:05;;;;;;;13.95;5.72;;;;;;;8.52;100.00;100989.75;5074060;28;20485;-48
2024/02/06 03:52:34;;;;;;;14.32;7.03;;;;;;;8.51;100.00;100987.16;5073924;28;20097;-50
2024/02/06 03:55:02;;;;;;;16.95;6.45;;;;;;;8.48;100.00;100987.34;5073694;28;20538;-52
2024/02/06 03:57:31;;;;;;;16.92;7.22;;;;;;;8.50;100.00;100996.00;5073298;28;20044;-48
2024/02/06 03:59:59;;;;;;;16.45;7.72;;;;;;;8.51;100.00;100992.41;5073802;28;20357;-57
2024/02/06 04:02:27;;;;;;;15.93;7.38;;;;;;;8.48;100.00;100988.22;5073176;28;20048;-57
2024/02/06 04:04:57;;;;;;;13.00;7.68;;;;;;;8.47;100.00;100997.00;5073165;28;20443;-56
2024/02/06 04:07:25;;;;;;;11.30;7.57;;;;;;;8.45;100.00;100989.22;5073312;28;20106;-57
2024/02/06 04:09:56;;;;;;;15.88;7.80;;;;;;;8.42;100.00;100997.19;5072100;28;20068;-57
2024/02/06 04:12:24;;;;;;;16.67;7.55;;;;;;;8.41;100.00;100995.53;5073453;28;20036;-57
2024/02/06 04:14:52;;;;;;;15.63;8.07;;;;;;;8.43;100.00;100977.09;5073189;28;20102;-46
2024/02/06 04:17:21;;;;;;;16.88;7.65;;;;;;;8.44;100.00;100994.53;5071941;28;20040;-47
2024/02/06 04:19:49;;;;;;;14.63;7.10;;;;;;;8.44;100.00;100997.97;5073090;28;20059;-58
2024/02/06 04:22:18;;;;;;;16.17;7.70;;;;;;;8.43;100.00;100991.03;5072674;28;20060;-47
2024/02/06 04:24:47;;;;;;;13.63;7.18;;;;;;;8.42;100.00;100983.25;5069856;28;20177;-57
2024/02/06 04:27:15;;;;;;;13.18;7.00;;;;;;;8.46;100.00;100984.81;5069947;28;20049;-57
2024/02/06 04:29:45;;;;;;;14.20;7.28;;;;;;;8.44;100.00;100984.03;5070453;28;20053;-57
2024/02/06 04:32:14;;;;;;;14.77;7.60;;;;;;;8.44;100.00;100982.25;5069321;28;20044;-47
2024/02/06 04:34:42;;;;;;;15.27;6.97;;;;;;;8.48;100.00;100971.63;5068615;28;20526;-47
2024/02/06 04:37:10;;;;;;;15.82;6.82;;;;;;;8.48;100.00;100980.34;5070426;28;20048;-57
2024/02/06 04:39:40;;;;;;;16.77;7.35;;;;;;;8.43;100.00;100980.53;5073030;28;20068;-58
2024/02/06 04:42:08;;;;;;;15.15;7.30;;;;;;;8.45;100.00;100975.25;5072690;28;20044;-58
2024/02/06 04:44:36;;;;;;;15.75;7.40;;;;;;;8.43;100.00;100977.09;5068559;28;20408;-57
2024/02/06 04:47:05;;;;;;;15.63;6.68;;;;;;;8.40;100.00;100972.03;5068495;28;20071;-57
2024/02/06 04:49:33;;;;;;;15.07;7.85;;;;;;;8.39;100.00;100979.03;5071853;28;20430;-57
2024/02/06 04:52:02;;;;;;;15.35;7.15;;;;;;;8.43;100.00;100969.22;5069655;28;20040;-56
2024/02/06 04:54:30;;;;;;;16.25;6.95;;;;;;;8.41;100.00;100971.94;5069090;28;20499;-56
2024/02/06 04:57:00;;;;;;;16.88;7.03;;;;;;;8.43;100.00;100959.56;5069588;28;20596;-56
2024/02/06 04:59:28;;;;;;;14.35;7.80;;;;;;;8.41;100.00;100966.69;5068570;28;20045;-57
2024/02/06 05:01:56;;;;;;;20.00;7.30;;;;;;;8.37;100.00;100957.31;5068065;28;20519;-57
2024/02/06 05:04:24;;;;;;;13.23;7.10;;;;;;;8.41;100.00;100963.22;5072308;28;20495;-56
2024/02/06 05:06:53;;;;;;;19.15;7.25;;;;;;;8.42;100.00;100963.13;5072405;28;20564;-58
2024/02/06 05:09:21;;;;;;;16.40;7.00;;;;;;;8.40;100.00;100958.91;5072555;28;20040;-57
2024/02/06 05:11:49;;;;;;;18.15;7.18;;;;;;;8.44;100.00;100944.72;5072651;28;20041;-57
2024/02/06 05:14:19;;;;;;;18.27;6.95;;;;;;;8.40;100.00;100948.44;5068822;28;20048;-57
2024/02/06 05:16:47;;;;;;;18.35;6.70;;;;;;;8.37;100.00;100943.34;5069868;28;20512;-57
2024/02/06 05:19:17;;;;;;;15.73;6.70;;;;;;;8.38;100.00;100938.00;5069995;28;20052;-57
2024/02/06 05:21:49;;;;;;;18.67;7.38;;;;;;;8.36;100.00;100931.19;5069514;28;20040;-56
2024/02/06 05:24:17;;;;;;;15.80;7.00;;;;;;;8.36;100.00;100924.16;5071665;28;20052;-57
2024/02/06 05:26:46;;;;;;;15.13;7.40;;;;;;;8.35;100.00;100919.00;5072593;28;20056;-56
2024/02/06 05:29:14;;;;;;;15.02;7.00;;;;;;;8.38;100.00;100930.16;5072349;28;20044;-57
2024/02/06 05:31:44;;;;;;;16.10;7.35;;;;;;;8.41;100.00;100909.03;5072271;28;20181;-56
2024/02/06 05:34:12;;;;;;;18.23;7.90;;;;;;;8.41;100.00;100918.66;5072421;28;20559;-57
2024/02/06 05:36:40;;;;;;;15.90;7.63;;;;;;;8.40;100.00;100919.59;5072834;28;20124;-57
2024/02/06 05:39:09;;;;;;;17.20;7.95;;;;;;;8.40;100.00;100923.06;5076445;28;20066;-56
2024/02/06 05:41:37;;;;;;;11.98;7.05;;;;;;;8.41;100.00;100921.28;5074948;28;20056;-57
2024/02/06 05:44:05;;;;;;;19.48;7.93;;;;;;;8.39;100.00;100915.28;5074972;28;20062;-57
2024/02/06 05:46:33;;;;;;;16.65;8.63;;;;;;;8.38;100.00;100926.69;5076196;28;20036;-56
2024/02/06 05:49:03;;;;;;;18.83;8.35;;;;;;;8.41;100.00;100923.91;5074106;28;20044;-57
2024/02/06 05:51:32;;;;;;;18.73;8.77;;;;;;;8.37;100.00;100919.75;5072432;28;20048;-57
2024/02/06 05:54:00;;;;;;;16.98;8.52;;;;;;;8.36;100.00;100921.53;5075818;28;20041;-57
2024/02/06 05:56:29;;;;;;;19.90;8.88;;;;;;;8.35;100.00;100911.16;5074578;28;20131;-57
2024/02/06 05:58:57;;;;;;;16.90;8.10;;;;;;;8.35;100.00;100911.16;5072942;28;20516;-57
2024/02/06 06:01:25;;;;;;;17.92;9.77;;;;;;;8.32;100.00;100913.91;5071114;28;20044;-56
2024/02/06 06:03:53;;;;;;;19.88;9.25;;;;;;;8.29;100.00;100915.78;5073709;28;20499;-57
2024/02/06 06:06:22;;;;;;;18.27;8.50;;;;;;;8.29;100.00;100918.41;5075705;28;20076;-57
2024/02/06 06:08:51;;;;;;;18.65;9.52;;;;;;;8.31;100.00;100912.25;5075651;28;20387;-56
2024/02/06 06:11:20;;;;;;;16.30;8.27;;;;;;;8.31;100.00;100914.88;5075943;28;20139;-56
2024/02/06 06:13:48;;;;;;;21.75;8.55;;;;;;;8.28;100.00;100914.09;5075454;28;20487;-57
2024/02/06 06:16:20;;;;;;;17.80;9.52;;;;;;;8.25;100.00;100919.50;5072417;28;20119;-57
2024/02/06 06:18:48;;;;;;;16.90;8.98;;;;;;;8.25;100.00;100910.81;5072832;28;20196;-56
2024/02/06 06:21:16;;;;;;;14.82;8.18;;;;;;;8.22;100.00;100905.72;5075697;28;20372;-51
2024/02/06 06:23:46;;;;;;;20.00;8.82;;;;;;;8.23;100.00;100908.25;5075606;28;20120;-48
2024/02/06 06:26:16;;;;;;;17.63;8.70;;;;;;;8.26;100.00;100896.75;5075542;28;20131;-47
2024/02/06 06:28:45;;;;;;;18.48;8.48;;;;;;;8.25;100.00;100897.72;5075326;28;20485;-55
2024/02/06 06:31:17;;;;;;;16.73;7.95;;;;;;;8.25;100.00;100888.06;5075343;28;20051;-56
2024/02/06 06:33:46;;;;;;;16.35;8.18;;;;;;;8.23;100.00;100891.69;5074900;28;20549;-50
2024/02/06 06:36:14;;;;;;;18.85;8.23;;;;;;;8.25;100.00;100879.38;5073066;28;20071;-47
2024/02/06 06:38:46;;;;;;;21.63;9.48;;;;;;;8.21;100.00;100883.91;5072090;28;20124;-47
2024/02/06 06:41:14;;;;;;;19.92;9.20;;;;;;;8.23;100.00;100873.34;5071967;28;20062;-47
2024/02/06 06:43:42;;;;;;;20.35;9.10;;;;;;;8.21;100.00;100880.47;5074799;28;20044;-48
2024/02/06 06:46:11;;;;;;;18.10;9.82;;;;;;;8.19;100.00;100871.81;5074607;28;20052;-51
2024/02/06 06:48:42;;;;;;;12.32;8.05;;;;;;;8.22;100.00;100869.91;5074631;28;20574;-51
2024/02/06 06:51:10;;;;;;;18.98;8.52;;;;;;;8.22;100.00;100866.41;5074557;28;20131;-48
2024/02/06 06:53:38;;;;;;;18.67;8.52;;;;;;;8.19;100.00;100856.09;5074569;28;20495;-50
2024/02/06 06:56:16;;;;;;;15.90;7.85;;;;;;;8.20;100.00;100857.81;5074883;28;20044;-47
2024/02/06 06:58:44;;;;;;;15.35;8.27;;;;;;;8.18;100.00;100851.78;5075016;28;20048;-47
2024/02/06 07:01:12;;;;;;;17.23;7.38;;;;;;;8.25;100.00;100859.25;5072258;28;20126;-50
2024/02/06 07:03:41;;;;;;;20.13;8.05;;;;;;;8.24;100.00;100857.53;5071186;28;20068;-47
2024/02/06 07:06:09;;;;;;;15.77;6.85;;;;;;;8.25;100.00;100859.25;5073478;28;20052;-48
2024/02/06 07:08:38;;;;;;;20.92;7.75;;;;;;;8.28;100.00;100864.31;5074069;28;20055;-47
2024/02/06 07:11:08;;;;;;;17.05;7.20;;;;;;;8.26;100.00;100860.94;5074353;28;20052;-46
2024/02/06 07:13:36;;;;;;;14.68;7.10;;;;;;;8.26;100.00;100858.31;5074461;28;20045;-47
2024/02/06 07:16:05;;;;;;;17.15;6.70;;;;;;;8.27;100.00;100864.38;5074237;28;20064;-47
2024/02/06 07:18:33;;;;;;;13.60;6.43;;;;;;;8.27;100.00;100856.53;5073236;28;20067;-47
2024/02/06 07:21:01;;;;;;;21.45;7.47;;;;;;;8.25;100.00;100859.25;5074555;28;20130;-50
2024/02/06 07:23:32;;;;;;;15.48;6.53;;;;;;;8.23;100.00;100858.47;5072800;28;20041;-47
2024/02/06 07:26:01;;;;;;;17.33;7.22;;;;;;;8.23;100.00;100860.25;5074410;28;20048;-46
2024/02/06 07:28:35;;;;;;;14.05;6.38;;;;;;;8.25;100.00;100854.00;5072719;28;20048;-49
2024/02/06 07:31:03;;;;;;;17.17;7.55;;;;;;;8.22;100.00;100853.31;5067903;28;20844;-48
2024/02/06 07:33:32;;;;;;;15.35;7.32;;;;;;;8.22;100.00;100848.94;5073207;28;20051;-47
2024/02/06 07:36:01;;;;;;;23.88;6.63;;;;;;;8.26;100.00;100855.69;5074346;28;20041;-47
2024/02/06 07:38:29;;;;;;;18.15;7.05;;;;;;;8.22;100.00;100850.69;5074043;28;20059;-48
2024/02/06 07:40:58;;;;;;;22.60;7.22;;;;;;;8.22;100.00;100862.03;5074103;28;20062;-46
2024/02/06 07:43:27;;;;;;;14.98;7.88;;;;;;;8.20;100.00;100858.63;5074244;28;20348;-49
2024/02/06 07:45:57;;;;;;;15.02;7.00;;;;;;;8.21;100.00;100857.72;5074229;28;20051;-47
2024/02/06 07:48:25;;;;;;;16.17;6.90;;;;;;;8.18;100.00;100867.50;5071069;28;20055;-48
2024/02/06 07:50:53;;;;;;;13.77;7.82;;;;;;;8.17;100.00;100869.28;5071684;28;20365;-47
2024/02/06 07:53:22;;;;;;;17.35;7.38;;;;;;;8.18;100.00;100864.88;5073967;28;20111;-48
2024/02/06 07:55:50;;;;;;;21.58;7.05;;;;;;;8.14;100.00;100861.59;5074021;28;20048;-46
2024/02/06 07:58:18;;;;;;;15.68;8.00;;;;;;;8.15;100.00;100855.41;5073693;28;20048;-49
2024/02/06 08:00:46;;;;;;;14.50;7.22;;;;;;;8.20;100.00;100868.28;5073225;28;20052;-48
2024/02/06 08:03:16;;;;;;;16.98;8.40;;;;;;;8.16;100.00;100854.50;5073387;28;20048;-47
2024/02/06 08:05:44;;;;;;;19.02;7.72;;;;;;;8.16;100.00;100861.53;5073384;28;20135;-48
2024/02/06 08:08:13;;;;;;;20.30;8.15;;;;;;;8.13;100.00;100850.25;5073516;28;20602;-47
2024/02/06 08:10:41;;;;;;;17.58;7.90;;;;;;;8.15;100.00;100850.19;5072979;28;20106;-46
2024/02/06 08:13:09;;;;;;;18.02;7.93;;;;;;;8.13;100.00;100841.56;5072979;28;20040;-47
2024/02/06 08:15:38;;;;;;;16.77;7.72;;;;;;;8.14;100.00;100832.78;5073020;28;20040;-48
2024/02/06 08:18:07;;;;;;;19.38;7.82;;;;;;;8.17;100.00;100839.66;5073081;28;20071;-47
2024/02/06 08:20:37;;;;;;;21.23;8.00;;;;;;;8.15;100.00;100829.22;5071696;28;20052;-47
2024/02/06 08:23:08;;;;;;;18.85;7.05;;;;;;;8.15;100.00;100833.63;5072960;28;20052;-48
2024/02/06 08:25:40;;;;;;;17.15;8.00;;;;;;;8.17;100.00;100824.75;5072973;28;20127;-57
2024/02/06 08:28:08;;;;;;;14.82;7.63;;;;;;;8.19;100.00;100825.50;5070355;28;20071;-48
2024/02/06 08:30:37;;;;;;;16.67;7.32;;;;;;;8.18;100.00;100823.84;5068970;28;20045;-47
2024/02/06 08:33:05;;;;;;;17.70;7.90;;;;;;;8.22;100.00;100824.50;5072396;28;20121;-52
2024/02/06 08:35:34;;;;;;;16.17;6.85;;;;;;;8.23;100.00;100821.78;5070930;28;20079;-49
2024/02/06 08:38:04;;;;;;;16.30;6.97;;;;;;;8.27;100.00;100817.22;5069090;28;20381;-50
2024/02/06 08:40:33;;;;;;;17.10;7.43;;;;;;;8.26;100.00;100816.38;5068766;28;20078;-48
2024/02/06 08:43:01;;;;;;;16.33;6.72;;;;;;;8.28;100.00;100822.38;5073066;28;20098;-49
2024/02/06 08:45:29;;;;;;;16.30;7.00;;;;;;;8.29;100.00;100815.38;5072777;28;20036;-49
2024/02/06 08:47:57;;;;;;;18.85;6.97;;;;;;;8.32;100.00;100815.19;5073048;28;20541;-47
2024/02/06 08:50:26;;;;;;;14.65;7.18;;;;;;;8.34;100.00;100815.94;5073032;28;20040;-49
2024/02/06 08:52:54;;;;;;;18.42;8.00;;;;;;;8.33;100.00;100805.56;5072848;28;20492;-49
2024/02/06 08:55:23;;;;;;;18.35;6.95;;;;;;;8.35;100.00;100814.19;5072624;28;20033;-48
2024/02/06 08:57:54;;;;;;;22.10;7.43;;;;;;;8.37;100.00;100807.94;5072701;28;20074;-47
2024/02/06 09:00:22;;;;;;;23.08;6.68;;;;;;;8.36;100.00;100800.16;5072696;28;20123;-46
2024/02/06 09:02:51;;;;;;;17.83;7.57;;;;;;;8.39;100.00;100808.66;5072715;28;20040;-46
2024/02/06 09:05:19;;;;;;;18.88;6.70;;;;;;;8.39;100.00;100794.75;5072363;28;20106;-47
2024/02/06 09:07:48;;;;;;;21.38;7.20;;;;;;;8.43;100.00;100796.25;5072544;28;20098;-48
2024/02/06 09:10:19;;;;;;;20.23;7.05;;;;;;;8.45;100.00;100786.53;5072756;28;20047;-47
2024/02/06 09:12:51;;;;;;;19.20;6.57;;;;;;;8.43;100.00;100781.34;5071536;28;20044;-47
2024/02/06 09:15:19;;;;;;;16.83;7.07;;;;;;;8.46;100.00;100781.22;5072661;28;20045;-46
2024/02/06 09:17:47;;;;;;;20.17;6.55;;;;;;;8.50;100.00;100783.69;5072229;28;20377;-47
2024/02/06 09:20:16;;;;;;;18.60;6.70;;;;;;;8.52;100.00;100785.28;5072190;28;20048;-47
2024/02/06 09:22:45;;;;;;;15.65;6.22;;;;;;;8.57;100.00;100779.75;5072116;28;20533;-45
2024/02/06 09:25:16;;;;;;;15.73;6.65;;;;;;;8.55;100.00;100774.59;5072023;28;20376;-47
2024/02/06 09:27:44;;;;;;;17.50;5.82;;;;;;;8.58;100.00;100766.56;5069901;28;20450;-48
2024/02/06 09:30:21;;;;;;;17.35;5.43;;;;;;;8.63;100.00;100767.13;5067722;28;20118;-47
2024/02/06 09:32:49;;;;;;;16.15;5.75;;;;;;;8.68;100.00;100766.03;5072081;28;20392;-47
2024/02/06 09:35:17;;;;;;;16.92;5.55;;;;;;;8.69;100.00;100760.69;5071397;28;20043;-48
2024/02/06 09:37:46;;;;;;;13.90;5.18;;;;;;;8.70;100.00;100756.28;5068885;28;20047;-47
2024/02/06 09:40:14;;;;;;;18.30;5.47;;;;;;;8.71;100.00;100752.72;5071136;28;20456;-46
2024/02/06 09:42:43;;;;;;;17.30;5.32;;;;;;;8.77;100.00;100747.13;5072272;28;20045;-47
2024/02/06 09:45:13;;;;;;;14.85;5.30;;;;;;;8.80;100.00;100742.53;5072195;28;20041;-47
2024/02/06 09:47:42;;;;;;;17.52;5.22;;;;;;;8.86;100.00;100736.09;5072143;28;20052;-46
2024/02/06 09:50:11;;;;;;;18.40;5.60;;;;;;;8.92;100.00;100735.72;5072128;28;20040;-45
2024/02/06 09:52:41;;;;;;;13.27;3.97;;;;;;;9.02;100.00;100740.44;5072216;28;20052;-47
2024/02/06 09:55:13;;;;;;;15.48;4.28;;;;;;;9.08;100.00;100729.53;5072315;28;20403;-48
2024/02/06 09:57:43;;;;;;;15.88;4.95;;;;;;;9.18;100.00;100732.47;5072194;28;20123;-47
2024/02/06 10:00:20;;;;;;;14.18;4.13;;;;;;;9.22;100.00;100731.34;5072164;28;20044;-45
2024/02/06 10:02:50;;;;;;;14.07;4.30;;;;;;;9.27;100.00;100739.75;5072010;28;20048;-47
2024/02/06 10:05:25;;;;;;;10.20;3.80;;;;;;;9.35;100.00;100737.50;5071836;28;20500;-46
2024/02/06 10:07:54;;;;;;;12.07;3.90;;;;;;;9.40;100.00;100721.50;5071984;28;20507;-49
2024/02/06 10:10:24;;;;;;;15.32;4.70;;;;;;;9.44;100.00;100733.50;5072087;28;20520;-50
2024/02/06 10:12:53;;;;;;;13.20;3.65;;;;;;;9.52;100.00;100728.59;5071514;28;20759;-48
2024/02/06 10:15:21;;;;;;;19.60;4.18;;;;;;;9.57;100.00;100721.28;5069219;28;20115;-51
2024/02/06 10:17:58;;;;;;;12.00;3.90;;;;;;;9.61;100.00;100730.66;5068197;28;20551;-48
2024/02/06 10:20:26;;;;;;;13.48;4.05;;;;;;;9.63;100.00;100723.50;5069714;28;20055;-47
2024/02/06 10:22:55;;;;;;;14.48;4.38;;;;;;;9.69;100.00;100724.06;5072470;28;20044;-49
2024/02/06 10:25:25;;;;;;;16.30;4.95;;;;;;;9.70;100.00;100715.25;5075531;28;20090;-47
2024/02/06 10:27:57;;;;;;;14.93;5.63;;;;;;;9.73;100.00;100718.50;5075146;28;20037;-46
2024/02/06 10:30:26;;;;;;;19.55;5.35;;;;;;;9.73;100.00;100715.88;5071250;28;20052;-47
2024/02/06 10:32:54;;;;;;;13.45;6.03;;;;;;;9.77;100.00;100711.28;5071364;28;20040;-46
2024/02/06 10:35:31;;;;;;;12.48;5.40;;;;;;;9.85;100.00;100713.44;5071725;28;20041;-46
2024/02/06 10:38:01;;;;;;;13.80;5.88;;;;;;;9.82;100.00;100709.22;5072828;28;20048;-47
2024/02/06 10:40:29;;;;;;;15.98;6.15;;;;;;;9.86;100.00;100701.97;5075126;28;20048;-47
2024/02/06 10:42:58;;;;;;;17.48;6.22;;;;;;;9.87;100.00;100709.78;5075417;28;20056;-46
2024/02/06 10:45:56;;;;;;;14.95;5.53;;;;;;;9.90;100.00;100699.06;5070817;28;20094;-47
2024/02/06 10:48:25;;;;;;;17.38;6.28;;;;;;;9.97;100.00;100696.88;5073491;28;20541;-47
2024/02/06 10:50:58;;;;;;;18.25;6.10;;;;;;;10.09;100.00;100703.97;5074710;28;20408;-46
2024/02/06 10:53:29;;;;;;;15.27;6.07;;;;;;;10.19;100.00;100703.38;5072224;28;20048;-49
2024/02/06 10:56:03;;;;;;;13.10;5.32;;;;;;;10.29;100.00;100702.66;5071337;28;20040;-48
2024/02/06 10:58:37;;;;;;;18.00;5.65;;;;;;;10.38;100.00;100689.88;5075051;28;20044;-48
2024/02/06 11:01:08;;;;;;;15.98;5.43;;;;;;;10.45;100.00;100704.28;5075032;28;20053;-47
2024/02/06 11:03:51;;;;;;;16.13;5.55;;;;;;;10.48;100.00;100707.56;5074809;28;20123;-48
2024/02/06 11:06:26;;;;;;;;;;;;;;;10.53;100.00;100704.63;5074910;28;20044;-48
2024/02/06 11:08:56;;;;;;;13.63;4.80;;;;;;;10.56;100.00;100706.22;5074816;28;19927;-46
2024/02/06 11:11:25;;;;;;;16.30;4.72;;;;;;;10.62;100.00;100690.88;5074454;28;20048;-48
2024/02/06 11:13:56;;;;;;;13.40;4.68;;;;;;;10.64;100.00;100691.59;5074487;28;20056;-47
2024/02/06 11:16:26;;;;;;;15.15;4.30;;;;;;;10.69;100.00;100686.03;5073180;28;20052;-47
2024/02/06 11:19:01;;;;;;;14.23;3.90;;;;;;;10.72;100.00;100685.81;5074458;28;20056;-46
2024/02/06 11:21:37;;;;;;;14.10;4.38;;;;;;;10.78;100.00;100687.19;5074347;28;20044;-47
2024/02/06 11:24:07;;;;;;;16.13;5.03;;;;;;;10.79;100.00;100686.25;5074545;28;20055;-48
2024/02/06 11:26:37;;;;;;;10.57;4.43;;;;;;;10.81;100.00;100672.03;5072972;28;20416;-45